sensor_id;sensor_type;location;lat;lon;timestamp;pressure;altitude;pressure_sealevel;temperature;humidity
68230;BME280;55048;52.220;5.160;2023-05-02T00:01:46;101945.28;;;12.42;82.13
68230;BME280;55048;52.220;5.160;2023-05-02T00:04:12;101965.31;;;12.51;82.36
68230;BME280;55048;52.220;5.160;2023-05-02T00:06:37;101846.41;;;11.82;83.17
68230;BME280;55048;52.220;5.160;2023-05-02T00:09:03;101651.28;;;10.50;83.36
68230;BME280;55048;52.220;5.160;2023-05-02T00:11:28;101939.34;;;12.22;83.07
68230;BME280;55048;52.220;5.160;2023-05-02T00:13:54;101902.22;;;12.20;82.16
68230;BME280;55048;52.220;5.160;2023-05-02T00:16:19;101963.03;;;12.55;82.54
68230;BME280;55048;52.220;5.160;2023-05-02T00:18:45;101955.06;;;12.48;82.17
68230;BME280;55048;52.220;5.160;2023-05-02T00:21:11;101966.22;;;12.64;82.05
68230;BME280;55048;52.220;5.160;2023-05-02T00:23:36;101952.72;;;12.40;82.69
68230;BME280;55048;52.220;5.160;2023-05-02T00:26:02;101893.22;;;11.96;83.54
68230;BME280;55048;52.220;5.160;2023-05-02T00:28:27;101886.47;;;11.69;84.98
68230;BME280;55048;52.220;5.160;2023-05-02T00:30:53;101956.03;;;12.36;84.71
68230;BME280;55048;52.220;5.160;2023-05-02T00:33:18;101946.25;;;12.30;84.13
68230;BME280;55048;52.220;5.160;2023-05-02T00:35:43;101922.81;;;12.13;84.44
68230;BME280;55048;52.220;5.160;2023-05-02T00:38:09;101740.84;;;10.88;85.09
68230;BME280;55048;52.220;5.160;2023-05-02T00:40:45;101786.19;;;10.99;85.49
68230;BME280;55048;52.220;5.160;2023-05-02T00:43:12;101822.09;;;11.22;85.32
68230;BME280;55048;52.220;5.160;2023-05-02T00:45:38;101938.78;;;11.95;85.61
68230;BME280;55048;52.220;5.160;2023-05-02T00:48:11;101922.47;;;11.78;86.24
68230;BME280;55048;52.220;5.160;2023-05-02T00:50:38;101989.41;;;12.20;86.31
68230;BME280;55048;52.220;5.160;2023-05-02T00:53:08;101962.53;;;11.96;86.10
68230;BME280;55048;52.220;5.160;2023-05-02T00:55:34;101940.28;;;11.84;85.97
68230;BME280;55048;52.220;5.160;2023-05-02T00:58:03;101712.13;;;10.33;85.96
68230;BME280;55048;52.220;5.160;2023-05-02T01:00:58;101989.31;;;12.08;85.26
68230;BME280;55048;52.220;5.160;2023-05-02T01:03:38;101998.06;;;12.15;85.72
68230;BME280;55048;52.220;5.160;2023-05-02T01:08:57;101961.31;;;11.67;85.47
68230;BME280;55048;52.220;5.160;2023-05-02T01:11:37;101973.31;;;11.83;85.12
68230;BME280;55048;52.220;5.160;2023-05-02T01:14:04;102004.31;;;12.03;84.34
68230;BME280;55048;52.220;5.160;2023-05-02T01:16:35;101993.72;;;11.96;83.80
68230;BME280;55048;52.220;5.160;2023-05-02T01:19:08;101859.63;;;11.14;83.16
68230;BME280;55048;52.220;5.160;2023-05-02T01:21:38;101999.44;;;11.99;82.70
68230;BME280;55048;52.220;5.160;2023-05-02T01:26:51;102010.84;;;12.07;81.99
68230;BME280;55048;52.220;5.160;2023-05-02T01:29:22;102028.34;;;11.64;82.26
68230;BME280;55048;52.220;5.160;2023-05-02T01:31:49;102029.28;;;11.83;81.99
68230;BME280;55048;52.220;5.160;2023-05-02T01:34:18;101843.69;;;10.31;81.79
68230;BME280;55048;52.220;5.160;2023-05-02T01:36:47;102012.09;;;11.72;81.33
68230;BME280;55048;52.220;5.160;2023-05-02T01:39:23;101889.69;;;10.83;80.67
68230;BME280;55048;52.220;5.160;2023-05-02T01:41:51;101958.00;;;11.02;80.21
68230;BME280;55048;52.220;5.160;2023-05-02T01:44:19;101983.75;;;11.08;79.73
68230;BME280;55048;52.220;5.160;2023-05-02T01:46:46;101943.28;;;10.93;79.77
68230;BME280;55048;52.220;5.160;2023-05-02T01:49:12;101914.13;;;10.66;79.00
68230;BME280;55048;52.220;5.160;2023-05-02T01:51:48;102034.31;;;11.60;78.62
68230;BME280;55048;52.220;5.160;2023-05-02T01:54:16;101996.34;;;11.33;77.85
68230;BME280;55048;52.220;5.160;2023-05-02T01:56:42;102007.22;;;11.31;77.75
68230;BME280;55048;52.220;5.160;2023-05-02T01:59:11;102036.38;;;11.58;77.66
68230;BME280;55048;52.220;5.160;2023-05-02T02:01:38;101965.75;;;11.10;77.25
68230;BME280;55048;52.220;5.160;2023-05-02T02:04:05;101775.28;;;9.86;76.79
68230;BME280;55048;52.220;5.160;2023-05-02T02:06:32;101607.19;;;8.75;76.64
68230;BME280;55048;52.220;5.160;2023-05-02T02:08:58;102045.34;;;11.25;76.48
68230;BME280;55048;52.220;5.160;2023-05-02T02:11:32;102088.88;;;11.50;76.32
68230;BME280;55048;52.220;5.160;2023-05-02T02:14:13;102015.50;;;11.10;76.37
68230;BME280;55048;52.220;5.160;2023-05-02T02:16:41;101983.00;;;10.94;76.15
68230;BME280;55048;52.220;5.160;2023-05-02T02:19:09;102064.06;;;11.50;75.86
68230;BME280;55048;52.220;5.160;2023-05-02T02:21:38;102043.03;;;11.35;75.90
68230;BME280;55048;52.220;5.160;2023-05-02T02:24:06;101672.91;;;8.73;75.47
68230;BME280;55048;52.220;5.160;2023-05-02T02:26:32;101930.16;;;10.20;76.07
68230;BME280;55048;52.220;5.160;2023-05-02T02:29:02;102109.59;;;11.42;75.96
68230;BME280;55048;52.220;5.160;2023-05-02T02:31:32;102092.22;;;11.39;76.00
68230;BME280;55048;52.220;5.160;2023-05-02T02:33:58;102068.53;;;11.05;76.65
68230;BME280;55048;52.220;5.160;2023-05-02T02:36:39;102085.66;;;11.35;76.23
68230;BME280;55048;52.220;5.160;2023-05-02T02:44:55;102099.22;;;11.20;76.91
68230;BME280;55048;52.220;5.160;2023-05-02T02:47:34;102087.63;;;11.02;77.05
68230;BME280;55048;52.220;5.160;2023-05-02T02:53:22;102099.56;;;11.37;76.42
68230;BME280;55048;52.220;5.160;2023-05-02T02:56:04;102084.47;;;11.24;76.27
68230;BME280;55048;52.220;5.160;2023-05-02T02:58:42;101966.28;;;10.67;75.49
68230;BME280;55048;52.220;5.160;2023-05-02T03:01:10;102116.09;;;11.59;75.88
68230;BME280;55048;52.220;5.160;2023-05-02T03:03:40;101968.13;;;10.67;75.34
68230;BME280;55048;52.220;5.160;2023-05-02T03:06:06;102086.75;;;11.21;75.18
68230;BME280;55048;52.220;5.160;2023-05-02T03:08:39;102052.25;;;10.75;75.89
68230;BME280;55048;52.220;5.160;2023-05-02T03:11:11;102088.22;;;11.04;75.66
68230;BME280;55048;52.220;5.160;2023-05-02T03:13:37;102106.22;;;11.08;75.79
68230;BME280;55048;52.220;5.160;2023-05-02T03:18:39;102063.50;;;10.77;75.53
68230;BME280;55048;52.220;5.160;2023-05-02T03:21:05;102133.66;;;11.15;75.50
68230;BME280;55048;52.220;5.160;2023-05-02T03:23:30;102107.50;;;10.92;74.79
68230;BME280;55048;52.220;5.160;2023-05-02T03:25:57;102128.38;;;10.62;73.65
68230;BME280;55048;52.220;5.160;2023-05-02T03:28:24;101873.53;;;9.07;73.48
68230;BME280;55048;52.220;5.160;2023-05-02T03:30:51;101640.13;;;7.51;73.36
68230;BME280;55048;52.220;5.160;2023-05-02T03:33:16;102144.34;;;10.62;73.58
68230;BME280;55048;52.220;5.160;2023-05-02T03:35:44;101627.59;;;7.32;72.90
68230;BME280;55048;52.220;5.160;2023-05-02T03:38:11;102135.53;;;10.88;72.81
68230;BME280;55048;52.220;5.160;2023-05-02T03:40:36;102138.63;;;10.65;72.75
68230;BME280;55048;52.220;5.160;2023-05-02T03:43:03;102214.97;;;10.98;72.77
68230;BME280;55048;52.220;5.160;2023-05-02T03:45:31;101960.81;;;9.50;72.86
68230;BME280;55048;52.220;5.160;2023-05-02T03:47:56;101971.41;;;9.43;72.82
68230;BME280;55048;52.220;5.160;2023-05-02T03:50:25;101760.94;;;8.41;72.57
68230;BME280;55048;52.220;5.160;2023-05-02T03:52:52;101812.00;;;8.70;72.69
68230;BME280;55048;52.220;5.160;2023-05-02T03:55:24;102160.31;;;10.76;72.84
68230;BME280;55048;52.220;5.160;2023-05-02T03:57:53;102110.59;;;10.50;73.09
68230;BME280;55048;52.220;5.160;2023-05-02T04:00:19;102144.78;;;10.59;73.30
68230;BME280;55048;52.220;5.160;2023-05-02T04:02:52;102114.47;;;10.34;73.55
68230;BME280;55048;52.220;5.160;2023-05-02T04:05:21;102206.78;;;10.73;74.21
68230;BME280;55048;52.220;5.160;2023-05-02T04:07:48;102150.47;;;10.63;74.51
68230;BME280;55048;52.220;5.160;2023-05-02T04:10:14;102162.97;;;10.69;74.36
68230;BME280;55048;52.220;5.160;2023-05-02T04:12:47;102214.75;;;10.66;75.30
68230;BME280;55048;52.220;5.160;2023-05-02T04:15:14;101611.13;;;7.02;75.51
68230;BME280;55048;52.220;5.160;2023-05-02T04:17:43;101987.84;;;9.05;75.48
68230;BME280;55048;52.220;5.160;2023-05-02T04:20:11;101871.13;;;8.29;75.37
68230;BME280;55048;52.220;5.160;2023-05-02T04:22:41;102193.25;;;10.61;75.36
68230;BME280;55048;52.220;5.160;2023-05-02T04:25:07;101931.25;;;8.98;76.23
68230;BME280;55048;52.220;5.160;2023-05-02T04:27:34;102185.06;;;10.56;76.24
68230;BME280;55048;52.220;5.160;2023-05-02T04:30:00;102210.88;;;10.69;75.66
68230;BME280;55048;52.220;5.160;2023-05-02T04:32:26;102226.25;;;10.87;75.79
68230;BME280;55048;52.220;5.160;2023-05-02T04:34:53;102216.41;;;10.81;75.43
68230;BME280;55048;52.220;5.160;2023-05-02T04:37:19;102225.19;;;10.81;75.08
68230;BME280;55048;52.220;5.160;2023-05-02T04:39:45;102188.97;;;10.73;75.26
68230;BME280;55048;52.220;5.160;2023-05-02T04:42:21;102199.00;;;10.71;74.75
68230;BME280;55048;52.220;5.160;2023-05-02T04:44:57;102211.09;;;10.74;74.53
68230;BME280;55048;52.220;5.160;2023-05-02T04:47:22;102149.25;;;10.39;74.28
68230;BME280;55048;52.220;5.160;2023-05-02T04:49:47;102262.50;;;11.01;73.92
68230;BME280;55048;52.220;5.160;2023-05-02T04:52:13;102237.09;;;10.92;73.11
68230;BME280;55048;52.220;5.160;2023-05-02T04:54:39;102262.69;;;11.06;72.37
68230;BME280;55048;52.220;5.160;2023-05-02T04:57:05;102280.31;;;11.01;71.84
68230;BME280;55048;52.220;5.160;2023-05-02T04:59:36;102153.31;;;10.28;71.38
68230;BME280;55048;52.220;5.160;2023-05-02T05:02:02;102146.38;;;10.27;71.32
68230;BME280;55048;52.220;5.160;2023-05-02T05:04:27;102292.19;;;11.11;70.94
68230;BME280;55048;52.220;5.160;2023-05-02T05:06:52;102257.16;;;11.01;70.72
68230;BME280;55048;52.220;5.160;2023-05-02T05:09:19;102262.28;;;10.96;70.61
68230;BME280;55048;52.220;5.160;2023-05-02T05:11:45;102221.31;;;10.64;70.47
68230;BME280;55048;52.220;5.160;2023-05-02T05:14:12;102240.31;;;10.67;70.16
68230;BME280;55048;52.220;5.160;2023-05-02T05:16:39;102229.06;;;10.52;70.77
68230;BME280;55048;52.220;5.160;2023-05-02T05:19:05;102075.63;;;9.58;70.52
68230;BME280;55048;52.220;5.160;2023-05-02T05:21:30;102273.91;;;10.68;70.40
68230;BME280;55048;52.220;5.160;2023-05-02T05:23:58;102283.75;;;10.81;70.25
68230;BME280;55048;52.220;5.160;2023-05-02T05:26:27;102068.06;;;9.55;69.87
68230;BME280;55048;52.220;5.160;2023-05-02T05:28:53;102252.78;;;10.54;69.00
68230;BME280;55048;52.220;5.160;2023-05-02T05:31:20;102284.38;;;10.90;68.60
68230;BME280;55048;52.220;5.160;2023-05-02T05:33:50;102208.94;;;10.30;68.42
68230;BME280;55048;52.220;5.160;2023-05-02T05:36:15;102284.59;;;10.88;68.46
68230;BME280;55048;52.220;5.160;2023-05-02T05:38:41;102298.94;;;11.01;68.14
68230;BME280;55048;52.220;5.160;2023-05-02T05:41:08;102247.53;;;10.87;68.06
68230;BME280;55048;52.220;5.160;2023-05-02T05:43:36;102281.53;;;10.91;68.05
68230;BME280;55048;52.220;5.160;2023-05-02T05:46:01;102317.38;;;11.15;67.14
68230;BME280;55048;52.220;5.160;2023-05-02T05:48:29;102316.16;;;11.18;66.80
68230;BME280;55048;52.220;5.160;2023-05-02T05:50:54;102307.53;;;11.22;66.50
68230;BME280;55048;52.220;5.160;2023-05-02T05:53:20;102337.69;;;11.43;66.02
68230;BME280;55048;52.220;5.160;2023-05-02T05:55:47;102334.59;;;11.46;65.03
68230;BME280;55048;52.220;5.160;2023-05-02T05:58:13;102303.66;;;11.18;63.87
68230;BME280;55048;52.220;5.160;2023-05-02T06:00:39;102315.53;;;11.16;63.27
68230;BME280;55048;52.220;5.160;2023-05-02T06:03:06;102290.13;;;11.13;63.44
68230;BME280;55048;52.220;5.160;2023-05-02T06:05:32;102346.69;;;11.42;62.93
68230;BME280;55048;52.220;5.160;2023-05-02T06:07:58;102299.13;;;10.92;60.69
68230;BME280;55048;52.220;5.160;2023-05-02T06:10:25;102353.25;;;11.26;61.29
68230;BME280;55048;52.220;5.160;2023-05-02T06:12:51;102339.91;;;11.26;60.77
68230;BME280;55048;52.220;5.160;2023-05-02T06:15:21;102305.50;;;11.11;59.62
68230;BME280;55048;52.220;5.160;2023-05-02T06:17:49;102276.78;;;10.73;59.15
68230;BME280;55048;52.220;5.160;2023-05-02T06:20:15;102329.69;;;11.10;59.84
68230;BME280;55048;52.220;5.160;2023-05-02T06:22:41;102317.34;;;10.95;60.72
68230;BME280;55048;52.220;5.160;2023-05-02T06:25:06;102167.69;;;9.92;61.23
68230;BME280;55048;52.220;5.160;2023-05-02T06:27:33;102346.63;;;10.95;62.21
68230;BME280;55048;52.220;5.160;2023-05-02T06:29:58;102367.56;;;11.12;62.57
68230;BME280;55048;52.220;5.160;2023-05-02T06:32:24;102260.72;;;10.27;62.91
68230;BME280;55048;52.220;5.160;2023-05-02T06:34:50;102403.22;;;11.31;63.19
68230;BME280;55048;52.220;5.160;2023-05-02T06:37:16;102376.75;;;10.96;63.62
68230;BME280;55048;52.220;5.160;2023-05-02T06:39:41;102394.09;;;10.85;64.43
68230;BME280;55048;52.220;5.160;2023-05-02T06:42:06;102126.72;;;9.19;64.94
68230;BME280;55048;52.220;5.160;2023-05-02T06:44:33;102101.28;;;8.97;65.31
68230;BME280;55048;52.220;5.160;2023-05-02T06:46:58;102433.00;;;10.86;67.71
68230;BME280;55048;52.220;5.160;2023-05-02T06:49:25;102438.09;;;10.81;67.84
68230;BME280;55048;52.220;5.160;2023-05-02T06:51:50;102345.53;;;10.22;68.03
68230;BME280;55048;52.220;5.160;2023-05-02T06:54:15;102343.03;;;10.14;67.98
68230;BME280;55048;52.220;5.160;2023-05-02T06:56:41;102430.25;;;10.66;67.93
68230;BME280;55048;52.220;5.160;2023-05-02T06:59:07;102303.81;;;9.88;68.48
68230;BME280;55048;52.220;5.160;2023-05-02T07:01:33;102407.91;;;10.54;67.94
68230;BME280;55048;52.220;5.160;2023-05-02T07:03:59;102377.94;;;10.32;67.85
68230;BME280;55048;52.220;5.160;2023-05-02T07:06:25;102407.78;;;10.69;67.27
68230;BME280;55048;52.220;5.160;2023-05-02T07:08:51;102390.78;;;10.63;67.03
68230;BME280;55048;52.220;5.160;2023-05-02T07:11:16;102384.69;;;10.83;66.39
68230;BME280;55048;52.220;5.160;2023-05-02T07:13:42;102342.41;;;10.53;65.90
68230;BME280;55048;52.220;5.160;2023-05-02T07:16:07;102346.34;;;10.64;65.50
68230;BME280;55048;52.220;5.160;2023-05-02T07:18:32;102268.03;;;10.25;63.17
68230;BME280;55048;52.220;5.160;2023-05-02T07:20:58;102434.13;;;11.18;62.51
68230;BME280;55048;52.220;5.160;2023-05-02T07:23:25;102318.03;;;10.43;61.97
68230;BME280;55048;52.220;5.160;2023-05-02T07:25:50;102407.06;;;11.02;61.68
68230;BME280;55048;52.220;5.160;2023-05-02T07:28:16;102382.06;;;10.96;61.15
68230;BME280;55048;52.220;5.160;2023-05-02T07:30:41;102484.63;;;11.60;61.08
68230;BME280;55048;52.220;5.160;2023-05-02T07:33:07;102491.00;;;11.59;61.32
68230;BME280;55048;52.220;5.160;2023-05-02T07:35:32;102328.94;;;10.61;61.18
68230;BME280;55048;52.220;5.160;2023-05-02T07:37:57;102457.28;;;11.18;61.05
68230;BME280;55048;52.220;5.160;2023-05-02T07:40:23;102426.75;;;11.07;60.94
68230;BME280;55048;52.220;5.160;2023-05-02T07:42:48;102434.31;;;11.04;61.23
68230;BME280;55048;52.220;5.160;2023-05-02T07:45:14;102490.56;;;11.55;60.98
68230;BME280;55048;52.220;5.160;2023-05-02T07:47:40;102494.50;;;11.66;60.92
68230;BME280;55048;52.220;5.160;2023-05-02T07:50:06;102491.22;;;11.70;60.19
68230;BME280;55048;52.220;5.160;2023-05-02T07:52:31;102460.00;;;11.51;59.83
68230;BME280;55048;52.220;5.160;2023-05-02T07:54:57;102327.78;;;10.77;59.59
68230;BME280;55048;52.220;5.160;2023-05-02T07:57:22;102440.78;;;11.62;58.24
68230;BME280;55048;52.220;5.160;2023-05-02T07:59:48;102502.94;;;11.96;57.40
68230;BME280;55048;52.220;5.160;2023-05-02T08:02:13;102507.25;;;11.90;57.51
68230;BME280;55048;52.220;5.160;2023-05-02T08:04:42;102502.75;;;12.11;57.16
68230;BME280;55048;52.220;5.160;2023-05-02T08:07:07;102441.00;;;12.14;56.28
68230;BME280;55048;52.220;5.160;2023-05-02T08:09:33;102501.66;;;12.58;54.35
68230;BME280;55048;52.220;5.160;2023-05-02T08:11:58;102514.63;;;12.55;54.04
68230;BME280;55048;52.220;5.160;2023-05-02T08:14:24;102513.59;;;12.29;54.37
68230;BME280;55048;52.220;5.160;2023-05-02T08:16:49;102414.13;;;11.69;54.49
68230;BME280;55048;52.220;5.160;2023-05-02T08:19:14;102399.56;;;11.52;55.19
68230;BME280;55048;52.220;5.160;2023-05-02T08:21:41;102515.44;;;12.48;55.29
68230;BME280;55048;52.220;5.160;2023-05-02T08:24:06;102431.56;;;12.18;54.72
68230;BME280;55048;52.220;5.160;2023-05-02T08:26:32;102499.09;;;12.96;53.79
68230;BME280;55048;52.220;5.160;2023-05-02T08:28:58;102272.66;;;11.90;52.35
68230;BME280;55048;52.220;5.160;2023-05-02T08:31:24;102453.41;;;13.11;51.59
68230;BME280;55048;52.220;5.160;2023-05-02T08:33:49;102519.94;;;13.26;51.44
68230;BME280;55048;52.220;5.160;2023-05-02T08:36:16;102493.16;;;12.81;51.75
68230;BME280;55048;52.220;5.160;2023-05-02T08:38:43;102463.47;;;12.58;51.73
68230;BME280;55048;52.220;5.160;2023-05-02T08:41:13;102551.44;;;13.04;51.96
68230;BME280;55048;52.220;5.160;2023-05-02T08:43:39;102552.16;;;12.73;52.47
68230;BME280;55048;52.220;5.160;2023-05-02T08:46:05;102508.88;;;12.38;52.04
68230;BME280;55048;52.220;5.160;2023-05-02T08:48:39;102307.56;;;11.16;51.61
68230;BME280;55048;52.220;5.160;2023-05-02T08:51:12;102500.03;;;12.50;52.16
68230;BME280;55048;52.220;5.160;2023-05-02T08:53:39;102528.59;;;12.50;52.26
68230;BME280;55048;52.220;5.160;2023-05-02T08:56:09;102565.72;;;12.51;52.15
68230;BME280;55048;52.220;5.160;2023-05-02T08:58:36;102514.84;;;12.13;52.29
68230;BME280;55048;52.220;5.160;2023-05-02T09:01:09;102573.53;;;12.46;52.23
68230;BME280;55048;52.220;5.160;2023-05-02T09:03:35;102420.66;;;11.33;52.22
68230;BME280;55048;52.220;5.160;2023-05-02T09:06:18;102553.59;;;12.49;51.78
68230;BME280;55048;52.220;5.160;2023-05-02T09:08:46;102583.56;;;12.71;51.43
68230;BME280;55048;52.220;5.160;2023-05-02T09:11:14;102595.25;;;12.83;50.81
68230;BME280;55048;52.220;5.160;2023-05-02T09:13:42;102557.44;;;12.86;50.56
68230;BME280;55048;52.220;5.160;2023-05-02T09:16:10;102509.06;;;12.49;49.10
68230;BME280;55048;52.220;5.160;2023-05-02T09:18:48;102583.94;;;12.81;48.56
68230;BME280;55048;52.220;5.160;2023-05-02T09:21:21;102556.03;;;12.84;47.70
68230;BME280;55048;52.220;5.160;2023-05-02T09:23:49;102576.47;;;13.16;47.56
68230;BME280;55048;52.220;5.160;2023-05-02T09:26:19;102591.16;;;12.87;46.85
68230;BME280;55048;52.220;5.160;2023-05-02T09:28:49;102551.31;;;12.79;46.62
68230;BME280;55048;52.220;5.160;2023-05-02T09:31:22;102601.16;;;13.12;46.32
68230;BME280;55048;52.220;5.160;2023-05-02T09:33:50;102602.16;;;13.24;46.41
68230;BME280;55048;52.220;5.160;2023-05-02T09:36:18;102560.84;;;13.13;45.85
68230;BME280;55048;52.220;5.160;2023-05-02T09:38:45;102557.53;;;13.31;44.90
68230;BME280;55048;52.220;5.160;2023-05-02T09:41:11;102603.88;;;13.95;44.25
68230;BME280;55048;52.220;5.160;2023-05-02T09:43:37;102453.53;;;12.85;44.03
68230;BME280;55048;52.220;5.160;2023-05-02T09:46:04;102554.25;;;13.29;43.63
68230;BME280;55048;52.220;5.160;2023-05-02T09:48:32;102598.03;;;13.73;43.84
68230;BME280;55048;52.220;5.160;2023-05-02T09:50:58;102606.72;;;14.00;42.69
68230;BME280;55048;52.220;5.160;2023-05-02T09:53:26;102588.25;;;14.23;43.47
68230;BME280;55048;52.220;5.160;2023-05-02T09:56:04;102465.78;;;13.06;42.99
68230;BME280;55048;52.220;5.160;2023-05-02T09:58:30;102532.44;;;13.32;43.65
68230;BME280;55048;52.220;5.160;2023-05-02T10:00:56;102403.66;;;12.79;44.23
68230;BME280;55048;52.220;5.160;2023-05-02T10:03:24;102618.63;;;14.04;44.07
68230;BME280;55048;52.220;5.160;2023-05-02T10:05:50;102606.47;;;13.76;43.96
68230;BME280;55048;52.220;5.160;2023-05-02T10:08:19;102619.78;;;13.83;43.82
68230;BME280;55048;52.220;5.160;2023-05-02T10:10:50;102620.53;;;13.97;43.72
68230;BME280;55048;52.220;5.160;2023-05-02T10:13:19;102611.72;;;13.90;43.14
68230;BME280;55048;52.220;5.160;2023-05-02T10:15:48;102519.94;;;13.19;42.61
68230;BME280;55048;52.220;5.160;2023-05-02T10:18:23;102596.22;;;13.98;42.63
68230;BME280;55048;52.220;5.160;2023-05-02T10:20:58;102581.63;;;14.26;42.06
68230;BME280;55048;52.220;5.160;2023-05-02T10:23:25;102604.13;;;14.68;41.55
68230;BME280;55048;52.220;5.160;2023-05-02T10:25:51;102476.25;;;13.77;40.96
68230;BME280;55048;52.220;5.160;2023-05-02T10:28:17;102602.94;;;14.39;40.79
68230;BME280;55048;52.220;5.160;2023-05-02T10:30:43;102632.09;;;14.47;40.59
68230;BME280;55048;52.220;5.160;2023-05-02T10:33:09;102485.97;;;13.71;40.77
68230;BME280;55048;52.220;5.160;2023-05-02T10:35:40;102629.59;;;14.77;40.03
68230;BME280;55048;52.220;5.160;2023-05-02T10:38:08;102584.41;;;14.63;40.09
68230;BME280;55048;52.220;5.160;2023-05-02T10:40:34;102620.66;;;14.65;39.55
68230;BME280;55048;52.220;5.160;2023-05-02T10:43:01;102583.75;;;14.17;40.13
68230;BME280;55048;52.220;5.160;2023-05-02T10:45:36;102671.72;;;14.39;40.75
68230;BME280;55048;52.220;5.160;2023-05-02T10:48:14;102630.88;;;14.50;40.93
68230;BME280;55048;52.220;5.160;2023-05-02T10:53:23;102647.72;;;14.57;40.55
68230;BME280;55048;52.220;5.160;2023-05-02T10:56:18;102641.56;;;14.50;40.39
68230;BME280;55048;52.220;5.160;2023-05-02T10:58:51;102568.88;;;13.96;40.79
68230;BME280;55048;52.220;5.160;2023-05-02T11:01:37;102647.50;;;15.02;39.98
68230;BME280;55048;52.220;5.160;2023-05-02T11:04:08;102513.34;;;14.42;38.80
68230;BME280;55048;52.220;5.160;2023-05-02T11:06:36;102669.25;;;15.30;38.78
68230;BME280;55048;52.220;5.160;2023-05-02T11:11:56;102541.22;;;14.34;39.40
68230;BME280;55048;52.220;5.160;2023-05-02T11:19:22;102655.44;;;14.90;39.19
68230;BME280;55048;52.220;5.160;2023-05-02T11:21:47;102654.31;;;14.79;39.70
68230;BME280;55048;52.220;5.160;2023-05-02T11:24:38;102663.16;;;15.23;39.10
68230;BME280;55048;52.220;5.160;2023-05-02T11:30:08;102617.88;;;14.78;39.06
68230;BME280;55048;52.220;5.160;2023-05-02T11:35:19;102663.97;;;14.80;39.67
68230;BME280;55048;52.220;5.160;2023-05-02T11:37:59;102676.59;;;14.48;39.96
68230;BME280;55048;52.220;5.160;2023-05-02T11:40:26;102622.63;;;14.20;39.59
68230;BME280;55048;52.220;5.160;2023-05-02T11:42:52;102625.91;;;14.78;39.22
68230;BME280;55048;52.220;5.160;2023-05-02T11:45:18;102663.00;;;15.55;38.73
68230;BME280;55048;52.220;5.160;2023-05-02T11:47:46;102625.06;;;15.70;38.62
68230;BME280;55048;52.220;5.160;2023-05-02T11:50:12;102655.59;;;15.87;37.99
68230;BME280;55048;52.220;5.160;2023-05-02T11:52:39;102675.13;;;15.76;38.23
68230;BME280;55048;52.220;5.160;2023-05-02T11:55:06;102563.06;;;14.56;38.46
68230;BME280;55048;52.220;5.160;2023-05-02T11:57:33;102645.56;;;15.09;39.02
68230;BME280;55048;52.220;5.160;2023-05-02T11:59:59;102632.84;;;15.23;38.45
68230;BME280;55048;52.220;5.160;2023-05-02T12:02:38;102679.75;;;15.32;38.75
68230;BME280;55048;52.220;5.160;2023-05-02T12:05:05;102648.88;;;15.11;38.86
68230;BME280;55048;52.220;5.160;2023-05-02T12:07:37;102689.34;;;15.03;39.02
68230;BME280;55048;52.220;5.160;2023-05-02T12:10:04;102625.81;;;14.85;38.67
68230;BME280;55048;52.220;5.160;2023-05-02T12:12:30;102665.59;;;15.43;38.27
68230;BME280;55048;52.220;5.160;2023-05-02T12:14:56;102665.09;;;15.53;38.04
68230;BME280;55048;52.220;5.160;2023-05-02T12:17:22;102684.44;;;15.18;38.34
68230;BME280;55048;52.220;5.160;2023-05-02T12:19:48;102679.59;;;15.09;39.16
68230;BME280;55048;52.220;5.160;2023-05-02T12:22:14;102638.94;;;14.68;39.39
68230;BME280;55048;52.220;5.160;2023-05-02T12:24:40;102655.53;;;14.84;39.96
68230;BME280;55048;52.220;5.160;2023-05-02T12:27:14;102662.63;;;14.71;39.48
68230;BME280;55048;52.220;5.160;2023-05-02T12:29:42;102676.00;;;14.71;39.70
68230;BME280;55048;52.220;5.160;2023-05-02T12:32:08;102700.44;;;14.82;39.71
68230;BME280;55048;52.220;5.160;2023-05-02T12:34:34;102702.91;;;14.83;39.68
68230;BME280;55048;52.220;5.160;2023-05-02T12:37:01;102711.94;;;15.32;39.42
68230;BME280;55048;52.220;5.160;2023-05-02T12:39:40;102683.06;;;15.34;39.02
68230;BME280;55048;52.220;5.160;2023-05-02T12:42:14;102702.25;;;15.31;39.44
68230;BME280;55048;52.220;5.160;2023-05-02T12:44:41;102728.25;;;15.49;38.55
68230;BME280;55048;52.220;5.160;2023-05-02T12:47:11;102662.94;;;15.25;38.72
68230;BME280;55048;52.220;5.160;2023-05-02T12:49:49;102733.41;;;15.87;38.50
68230;BME280;55048;52.220;5.160;2023-05-02T12:52:16;102568.66;;;15.10;38.46
68230;BME280;55048;52.220;5.160;2023-05-02T12:54:42;102567.66;;;14.92;38.16
68230;BME280;55048;52.220;5.160;2023-05-02T12:57:08;102703.91;;;15.87;38.25
68230;BME280;55048;52.220;5.160;2023-05-02T12:59:34;102740.47;;;15.63;38.43
68230;BME280;55048;52.220;5.160;2023-05-02T13:01:59;102709.94;;;15.46;38.49
68230;BME280;55048;52.220;5.160;2023-05-02T13:04:39;102725.06;;;15.59;39.15
68230;BME280;55048;52.220;5.160;2023-05-02T13:07:06;102665.69;;;15.37;38.74
68230;BME280;55048;52.220;5.160;2023-05-02T13:09:32;102686.97;;;15.31;38.40
68230;BME280;55048;52.220;5.160;2023-05-02T13:11:58;102720.41;;;15.29;39.19
68230;BME280;55048;52.220;5.160;2023-05-02T13:14:24;102597.50;;;14.52;39.18
68230;BME280;55048;52.220;5.160;2023-05-02T13:16:49;102683.22;;;14.96;38.95
68230;BME280;55048;52.220;5.160;2023-05-02T13:19:18;102646.41;;;14.66;38.82
68230;BME280;55048;52.220;5.160;2023-05-02T13:21:43;102685.09;;;14.70;39.15
68230;BME280;55048;52.220;5.160;2023-05-02T13:24:09;102732.06;;;14.98;39.57
68230;BME280;55048;52.220;5.160;2023-05-02T13:26:34;102674.94;;;14.47;39.75
68230;BME280;55048;52.220;5.160;2023-05-02T13:29:00;102741.34;;;14.95;40.00